Time;durP1;ratioP1;P1;durP2;ratioP2;P2;SDS_P1;SDS_P2;PMS_P1;PMS_P2;Temp;Humidity;BMP_temperature;BMP_pressure;BME280_temperature;BME280_humidity;BME280_pressure;Samples;Min_cycle;Max_cycle;Signal;HPM_P1;HPM_P2
2021/04/25 00:00:19;;;;;;;14.47;5.37;;;;;;;9.85;47.31;101809.51;1762213;80;25666;-59
2021/04/25 00:02:50;;;;;;;9.50;4.75;;;;;;;9.81;47.87;101803.11;1762370;81;25768;-59
2021/04/25 00:05:20;;;;;;;11.33;5.00;;;;;;;9.73;48.48;101798.75;1766412;79;26342;-59
2021/04/25 00:07:48;;;;;;;11.95;4.58;;;;;;;9.63;49.04;101802.06;1788597;79;25494;-58
2021/04/25 00:10:19;;;;;;;10.68;4.33;;;;;;;9.45;49.75;101798.78;1788596;78;28254;-58
2021/04/25 00:12:48;;;;;;;9.03;3.80;;;;;;;9.39;49.98;101795.17;1764607;80;25439;-58
2021/04/25 00:15:24;;;;;;;11.78;4.25;;;;;;;9.36;49.56;101796.25;1762435;81;25442;-58
2021/04/25 00:17:53;;;;;;;13.65;4.92;;;;;;;9.35;49.39;101783.78;1762092;80;27170;-59
2021/04/25 00:20:23;;;;;;;10.93;4.42;;;;;;;9.34;50.09;101783.41;1762448;80;25658;-59
2021/04/25 00:22:51;;;;;;;11.15;4.97;;;;;;;9.34;50.20;101783.41;1762448;81;27525;-59
2021/04/25 00:25:20;;;;;;;12.23;5.10;;;;;;;9.32;50.43;101789.35;1762270;80;26131;-58
2021/04/25 00:27:49;;;;;;;9.65;4.92;;;;;;;9.29;50.88;101780.15;1762365;80;25782;-58
2021/04/25 00:30:20;;;;;;;13.80;4.58;;;;;;;9.28;50.72;101781.60;1762375;80;26458;-58
2021/04/25 00:32:49;;;;;;;8.28;4.40;;;;;;;9.27;50.76;101776.73;1762440;80;26090;-59
2021/04/25 00:35:19;;;;;;;12.20;4.08;;;;;;;9.27;50.52;101778.07;1762480;80;27487;-59
2021/04/25 00:37:48;;;;;;;8.75;5.08;;;;;;;9.26;50.80;101777.69;1762110;80;25639;-59
2021/04/25 00:40:18;;;;;;;13.88;4.42;;;;;;;9.24;50.70;101777.77;1762119;80;25684;-59
2021/04/25 00:42:48;;;;;;;13.98;4.83;;;;;;;9.23;50.66;101772.52;1787404;80;25732;-59
2021/04/25 00:45:18;;;;;;;9.38;4.67;;;;;;;9.24;50.54;101775.58;1789371;80;25723;-58
2021/04/25 00:47:49;;;;;;;8.38;4.08;;;;;;;9.23;50.67;101772.02;1723562;82;28727;-58
2021/04/25 00:50:25;;;;;;;11.22;4.03;;;;;;;9.19;50.92;101769.17;1724048;82;26095;-59
2021/04/25 00:52:57;;;;;;;10.08;4.05;;;;;;;9.14;51.04;101765.08;1723822;82;25779;-59
2021/04/25 00:55:28;;;;;;;8.28;4.28;;;;;;;9.08;50.86;101764.53;1724106;83;25727;-59
2021/04/25 00:57:58;;;;;;;8.10;4.25;;;;;;;9.03;51.15;101767.98;1724068;82;25728;-58
2021/04/25 01:00:27;;;;;;;7.58;3.72;;;;;;;8.99;50.96;101766.95;1724001;83;28458;-58
2021/04/25 01:02:56;;;;;;;9.98;4.10;;;;;;;8.93;50.78;101766.41;1702628;83;25747;-58
2021/04/25 01:05:25;;;;;;;10.30;4.20;;;;;;;8.92;50.69;101766.48;1723846;83;25654;-57
2021/04/25 01:07:54;;;;;;;13.62;4.22;;;;;;;8.88;50.79;101764.48;1724055;83;25788;-58
2021/04/25 01:10:22;;;;;;;10.28;4.30;;;;;;;8.82;50.95;101759.53;1724109;83;25644;-58
2021/04/25 01:12:49;;;;;;;14.90;3.77;;;;;;;8.77;51.14;101759.83;1753496;81;27012;-58
2021/04/25 01:15:18;;;;;;;6.72;3.75;;;;;;;8.73;51.54;101755.64;1755631;81;26064;-57
2021/04/25 01:17:50;;;;;;;9.08;4.10;;;;;;;8.71;51.54;101759.36;1744625;81;25692;-58
2021/04/25 01:20:21;;;;;;;14.83;5.03;;;;;;;8.66;51.81;101751.61;1734189;82;26397;-58
2021/04/25 01:22:49;;;;;;;7.95;3.77;;;;;;;8.62;51.68;101748.77;1734056;82;25740;-59
2021/04/25 01:25:22;;;;;;;9.43;3.65;;;;;;;8.60;51.83;101743.52;1734104;82;27529;-60
2021/04/25 01:27:51;;;;;;;15.15;3.98;;;;;;;8.57;51.84;101739.67;1734018;82;26214;-58
2021/04/25 01:30:27;;;;;;;16.55;4.22;;;;;;;8.53;52.04;101744.00;1793411;78;25682;-58
2021/04/25 01:32:56;;;;;;;10.80;3.70;;;;;;;8.48;52.15;101744.75;1793518;80;25659;-58
2021/04/25 01:35:26;;;;;;;12.45;4.10;;;;;;;8.40;52.00;101740.72;1793559;80;25672;-59
2021/04/25 01:37:57;;;;;;;9.88;3.80;;;;;;;8.35;51.93;101732.13;1797000;79;27525;-58
2021/04/25 01:40:27;;;;;;;9.15;3.85;;;;;;;8.32;51.85;101733.64;1799569;79;25743;-59
2021/04/25 01:42:56;;;;;;;10.20;4.45;;;;;;;8.30;51.92;101730.19;1799535;78;25634;-58
2021/04/25 01:45:24;;;;;;;10.68;4.47;;;;;;;8.27;51.86;101733.94;1799617;79;26334;-58
2021/04/25 01:47:57;;;;;;;9.58;3.72;;;;;;;8.24;51.89;101734.62;1799377;78;25907;-58
2021/04/25 01:50:28;;;;;;;11.55;3.72;;;;;;;8.18;52.12;101731.84;1799806;79;32438;-58
2021/04/25 01:52:58;;;;;;;10.48;4.35;;;;;;;8.17;52.16;101725.25;1769676;79;25682;-58
2021/04/25 01:55:28;;;;;;;10.75;3.95;;;;;;;8.12;52.28;101722.36;1768098;81;25635;-58
2021/04/25 01:57:58;;;;;;;9.33;4.25;;;;;;;8.10;52.42;101722.97;1767963;81;25721;-58
2021/04/25 02:00:45;;;;;;;10.80;4.15;;;;;;;8.08;52.81;101718.17;1768133;81;26082;-58
2021/04/25 02:03:15;;;;;;;11.70;3.90;;;;;;;8.04;53.22;101717.97;1768108;81;27538;-59
2021/04/25 02:05:44;;;;;;;12.58;4.25;;;;;;;8.03;53.07;101716.23;1775675;78;26342;-59
2021/04/25 02:08:15;;;;;;;7.85;3.87;;;;;;;7.97;53.13;101708.14;1791845;80;25630;-59
2021/04/25 02:10:44;;;;;;;8.08;4.10;;;;;;;7.98;53.47;101710.32;1791294;80;25722;-59
2021/04/25 02:13:13;;;;;;;18.32;4.03;;;;;;;7.97;53.57;101715.30;1784230;79;25928;-60
2021/04/25 02:15:41;;;;;;;5.30;3.83;;;;;;;7.98;53.79;101710.32;1784158;80;27531;-59
2021/04/25 02:18:11;;;;;;;12.45;4.72;;;;;;;7.97;53.84;101709.94;1784051;80;25957;-57
2021/04/25 02:20:40;;;;;;;11.00;4.42;;;;;;;7.97;53.68;101709.94;1784144;80;25703;-58
2021/04/25 02:23:08;;;;;;;15.48;5.05;;;;;;;7.95;53.87;101714.06;1784184;79;25694;-58
2021/04/25 02:25:37;;;;;;;18.73;4.70;;;;;;;7.92;54.40;101716.08;1784195;79;25710;-58
2021/04/25 02:28:04;;;;;;;14.58;4.33;;;;;;;7.90;54.98;101722.00;1784048;79;27528;-58
2021/04/25 02:30:35;;;;;;;7.42;4.22;;;;;;;7.89;55.10;101722.95;1784003;79;25539;-58
2021/04/25 02:33:04;;;;;;;7.83;4.25;;;;;;;7.87;54.60;101727.08;1784119;79;25636;-58
2021/04/25 02:35:32;;;;;;;6.85;4.33;;;;;;;7.88;54.44;101726.59;1784111;79;25730;-58
2021/04/25 02:38:02;;;;;;;12.80;4.35;;;;;;;7.87;54.46;101731.09;1780039;79;25667;-59
2021/04/25 02:40:34;;;;;;;7.70;3.80;;;;;;;7.88;54.35;101727.47;1775928;79;26846;-59
2021/04/25 02:43:05;;;;;;;10.30;4.58;;;;;;;7.89;54.27;101724.30;1788543;80;25714;-58
2021/04/25 02:45:34;;;;;;;12.35;4.78;;;;;;;7.91;54.32;101723.23;1788599;78;25776;-59
2021/04/25 02:48:09;;;;;;;11.90;4.22;;;;;;;7.90;54.41;101720.17;1757798;80;25679;-58
2021/04/25 02:50:39;;;;;;;;;;;;;;;7.87;54.47;101722.18;1760050;81;25438;-59
2021/04/25 02:53:08;;;;;;;7.08;3.87;;;;;;;7.84;54.66;101713.38;1757386;81;28414;-58
2021/04/25 02:55:37;;;;;;;15.20;5.37;;;;;;;7.82;54.37;101709.07;1757259;81;25889;-58
2021/04/25 02:58:07;;;;;;;9.18;4.33;;;;;;;7.82;54.06;101707.73;1757245;81;25644;-58
2021/04/25 03:00:35;;;;;;;10.08;4.60;;;;;;;7.82;54.19;101712.63;1757389;80;26528;-58
2021/04/25 03:03:03;;;;;;;10.32;4.85;;;;;;;7.83;54.09;101712.14;1757359;80;26059;-58
2021/04/25 03:05:31;;;;;;;11.60;4.58;;;;;;;7.83;54.35;101708.12;1765708;79;27510;-58
2021/04/25 03:07:59;;;;;;;9.83;4.50;;;;;;;7.84;54.41;101705.83;1794305;79;25714;-58
2021/04/25 03:10:28;;;;;;;7.83;4.30;;;;;;;7.82;54.86;101707.27;1794495;79;25780;-58
2021/04/25 03:12:56;;;;;;;6.85;3.60;;;;;;;7.81;54.99;101710.91;1757977;79;25876;-58
2021/04/25 03:15:25;;;;;;;14.68;4.08;;;;;;;7.81;54.77;101712.70;1757403;80;26118;-58
2021/04/25 03:17:53;;;;;;;11.83;4.28;;;;;;;7.81;54.61;101708.22;1757241;80;27522;-58
2021/04/25 03:20:23;;;;;;;8.43;3.90;;;;;;;7.84;54.89;101706.67;1757337;81;25684;-58
2021/04/25 03:22:52;;;;;;;10.03;4.42;;;;;;;7.89;55.11;101704.20;1757384;80;26401;-58
2021/04/25 03:25:20;;;;;;;14.47;5.70;;;;;;;7.91;55.16;101699.61;1757375;80;25778;-58
2021/04/25 03:27:48;;;;;;;9.55;3.87;;;;;;;7.93;54.92;101705.75;1757377;80;25722;-59
2021/04/25 03:30:20;;;;;;;12.07;4.10;;;;;;;7.93;54.92;101700.39;1736298;81;27536;-64
2021/04/25 03:32:51;;;;;;;14.05;3.65;;;;;;;7.95;54.93;101697.11;1757115;81;25301;-61
2021/04/25 03:35:19;;;;;;;10.35;4.37;;;;;;;7.98;54.85;101699.61;1757209;80;25805;-59
2021/04/25 03:37:48;;;;;;;8.08;4.10;;;;;;;7.97;55.22;101698.76;1763561;80;26444;-58
2021/04/25 03:40:19;;;;;;;13.00;4.20;;;;;;;7.98;55.23;101699.61;1778791;80;26099;-58
2021/04/25 03:42:48;;;;;;;11.45;4.75;;;;;;;7.98;55.35;101705.81;1808642;79;28474;-58
2021/04/25 03:45:19;;;;;;;15.18;3.80;;;;;;;8.01;56.06;101699.88;1810758;78;25709;-59
2021/04/25 03:47:51;;;;;;;12.58;4.75;;;;;;;7.98;55.51;101697.77;1782736;78;25634;-58
2021/04/25 03:50:23;;;;;;;7.72;3.90;;;;;;;8.01;55.23;101689.16;1748409;80;26483;-59
2021/04/25 03:52:51;;;;;;;9.50;3.50;;;;;;;8.03;55.29;101697.48;1778863;80;25647;-59
2021/04/25 03:55:22;;;;;;;5.50;4.00;;;;;;;8.06;55.23;101693.28;1778788;80;27496;-59
2021/04/25 03:57:52;;;;;;;8.15;3.83;;;;;;;8.09;55.30;101694.44;1778794;80;25796;-59
2021/04/25 04:00:21;;;;;;;14.25;4.78;;;;;;;8.13;55.16;101695.09;1778878;79;25468;-58
2021/04/25 04:02:50;;;;;;;9.93;4.95;;;;;;;8.17;55.38;101695.27;1778777;80;25714;-58
2021/04/25 04:05:18;;;;;;;12.63;4.90;;;;;;;8.22;55.23;101693.64;1779105;79;25660;-59
2021/04/25 04:07:46;;;;;;;9.75;4.40;;;;;;;8.21;55.56;101698.61;1792345;78;28934;-58
2021/04/25 04:10:16;;;;;;;17.87;5.35;;;;;;;8.23;55.36;101695.36;1802785;79;26120;-58
2021/04/25 04:12:44;;;;;;;9.85;4.47;;;;;;;8.24;55.74;101695.28;1781334;79;25972;-58
2021/04/25 04:15:13;;;;;;;12.53;5.35;;;;;;;8.29;55.58;101689.62;1778772;80;25612;-58
2021/04/25 04:17:41;;;;;;;17.98;4.97;;;;;;;8.34;55.29;101696.03;1778841;80;26209;-58
2021/04/25 04:20:11;;;;;;;16.52;5.10;;;;;;;8.38;55.36;101697.55;1778829;80;27721;-58
2021/04/25 04:22:39;;;;;;;16.87;5.42;;;;;;;8.44;55.32;101695.80;1778753;80;25730;-58
2021/04/25 04:25:10;;;;;;;14.90;5.05;;;;;;;8.49;55.18;101693.72;1778812;80;25717;-58
2021/04/25 04:27:37;;;;;;;16.27;5.12;;;;;;;8.55;55.01;101697.34;1778789;79;26094;-59
2021/04/25 04:30:08;;;;;;;10.00;5.22;;;;;;;8.60;54.96;101688.53;1778818;80;25600;-59
2021/04/25 04:32:36;;;;;;;10.00;5.35;;;;;;;8.69;54.85;101683.52;1778776;80;27633;-59
2021/04/25 04:35:06;;;;;;;15.75;5.72;;;;;;;8.80;54.81;101679.61;1778729;80;25665;-58
2021/04/25 04:37:34;;;;;;;17.15;5.33;;;;;;;8.89;54.56;101682.17;1777506;80;25711;-59
2021/04/25 04:40:04;;;;;;;9.93;5.50;;;;;;;8.98;54.45;101680.69;1762200;81;25680;-59
2021/04/25 04:42:38;;;;;;;11.70;5.53;;;;;;;9.05;54.28;101679.33;1784377;80;25745;-62
2021/04/25 04:45:08;;;;;;;11.18;5.70;;;;;;;9.11;53.88;101680.25;1789023;79;28421;-62
2021/04/25 04:47:39;;;;;;;14.83;5.70;;;;;;;9.18;53.75;101676.67;1788718;79;25745;-61
2021/04/25 04:50:17;;;;;;;15.28;6.30;;;;;;;9.23;53.72;101679.88;1791004;79;25712;-61
2021/04/25 04:52:54;;;;;;;15.20;8.30;;;;;;;9.29;53.35;101679.45;1791056;79;26380;-61
2021/04/25 04:55:24;;;;;;;16.20;7.87;;;;;;;9.36;52.71;101683.92;1790930;79;25619;-61
2021/04/25 04:57:53;;;;;;;18.35;7.42;;;;;;;9.44;51.89;101690.13;1784669;80;28522;-59
2021/04/25 05:00:21;;;;;;;17.40;6.92;;;;;;;9.50;51.16;101685.66;1790943;79;25715;-59
2021/04/25 05:02:49;;;;;;;12.63;6.00;;;;;;;9.55;50.77;101683.03;1791395;79;25717;-59
2021/04/25 05:05:17;;;;;;;17.90;6.78;;;;;;;9.61;50.56;101681.75;1790994;79;26236;-59
2021/04/25 05:07:45;;;;;;;15.40;6.47;;;;;;;9.67;50.35;101685.84;1788440;79;25688;-59
2021/04/25 05:10:14;;;;;;;14.43;6.45;;;;;;;9.74;50.14;101681.74;1788514;80;28433;-59
2021/04/25 05:12:42;;;;;;;13.32;6.67;;;;;;;9.80;49.88;101684.48;1764564;79;25604;-58
2021/04/25 05:15:10;;;;;;;16.90;6.35;;;;;;;9.85;49.75;101670.22;1760903;81;26234;-59
2021/04/25 05:17:38;;;;;;;15.58;6.50;;;;;;;9.89;49.55;101672.20;1763010;80;26380;-59
2021/04/25 05:20:08;;;;;;;12.98;5.85;;;;;;;9.92;49.30;101667.46;1766822;80;26581;-59
2021/04/25 05:22:36;;;;;;;16.82;7.05;;;;;;;9.94;49.38;101668.22;1767351;80;27453;-59
2021/04/25 05:25:07;;;;;;;13.43;6.25;;;;;;;9.95;49.28;101671.29;1767346;80;25656;-59
2021/04/25 05:27:35;;;;;;;7.33;4.92;;;;;;;9.95;49.10;101673.97;1766911;79;25666;-59
2021/04/25 05:30:05;;;;;;;12.53;6.17;;;;;;;9.92;48.63;101663.93;1767755;79;25645;-59
2021/04/25 05:32:33;;;;;;;17.57;6.12;;;;;;;9.93;48.30;101671.88;1767366;80;25495;-59
2021/04/25 05:35:01;;;;;;;15.15;5.92;;;;;;;9.96;48.28;101666.76;1767202;79;27520;-59
2021/04/25 05:37:29;;;;;;;16.30;5.20;;;;;;;10.00;48.56;101661.05;1767106;81;25689;-59
2021/04/25 05:39:57;;;;;;;12.88;4.70;;;;;;;10.10;45.65;101658.58;1765571;79;25649;-59
2021/04/25 05:42:25;;;;;;;18.60;5.78;;;;;;;10.22;45.33;101655.47;1782055;80;25688;-59
2021/04/25 05:44:54;;;;;;;14.53;4.42;;;;;;;10.38;44.70;101656.59;1786791;79;26159;-59
2021/04/25 05:47:22;;;;;;;15.65;6.15;;;;;;;10.52;42.47;101651.53;1723402;81;28280;-59
2021/04/25 05:49:51;;;;;;;13.95;4.20;;;;;;;10.64;42.73;101650.59;1762253;80;25501;-59
2021/04/25 05:52:21;;;;;;;12.25;4.58;;;;;;;10.78;42.14;101652.25;1764370;79;25646;-59
2021/04/25 05:54:49;;;;;;;13.95;3.95;;;;;;;10.91;41.89;101649.48;1765032;79;26847;-59
2021/04/25 05:57:17;;;;;;;8.35;4.00;;;;;;;11.02;41.15;101640.61;1764988;81;25644;-59
2021/04/25 05:59:46;;;;;;;18.67;4.67;;;;;;;11.13;41.18;101641.12;1765088;79;27499;-59
2021/04/25 06:02:13;;;;;;;16.27;3.75;;;;;;;11.25;41.02;101640.65;1764732;81;25745;-59
2021/04/25 06:04:41;;;;;;;9.85;4.30;;;;;;;11.41;41.03;101643.02;1775624;78;25707;-58
2021/04/25 06:07:09;;;;;;;12.85;4.05;;;;;;;11.54;41.07;101640.21;1789961;79;25659;-58
2021/04/25 06:09:37;;;;;;;14.33;4.80;;;;;;;11.68;40.27;101643.16;1789917;79;25655;-60
2021/04/25 06:12:08;;;;;;;11.20;5.45;;;;;;;11.86;40.14;101640.81;1721849;82;28212;-59
2021/04/25 06:14:36;;;;;;;8.68;4.17;;;;;;;12.01;40.10;101639.60;1740221;80;25668;-57
2021/04/25 06:17:05;;;;;;;11.25;5.00;;;;;;;12.17;39.98;101635.17;1788652;79;25810;-57
2021/04/25 06:19:33;;;;;;;14.58;4.47;;;;;;;12.33;39.26;101636.60;1788558;80;26516;-58
2021/04/25 06:22:01;;;;;;;13.18;4.22;;;;;;;12.50;38.92;101640.14;1788697;80;25695;-59
2021/04/25 06:24:29;;;;;;;11.15;4.05;;;;;;;12.63;39.30;101635.05;1788621;79;28413;-59
2021/04/25 06:26:57;;;;;;;10.03;4.12;;;;;;;12.79;39.27;101631.41;1788375;78;26264;-58
2021/04/25 06:29:26;;;;;;;19.70;4.30;;;;;;;12.94;39.28;101633.82;1788498;80;25702;-59
2021/04/25 06:31:56;;;;;;;14.68;5.05;;;;;;;13.04;38.57;101629.83;1788284;80;25853;-59
2021/04/25 06:34:24;;;;;;;7.35;4.50;;;;;;;13.12;38.54;101631.38;1788615;80;25632;-58
2021/04/25 06:36:52;;;;;;;13.35;4.53;;;;;;;13.18;38.30;101628.14;1766497;80;27531;-59
2021/04/25 06:39:20;;;;;;;10.72;4.70;;;;;;;13.25;38.69;101621.23;1790110;78;25928;-59
2021/04/25 06:41:48;;;;;;;11.90;4.53;;;;;;;13.36;38.54;101618.10;1795210;78;25647;-59
2021/04/25 06:44:16;;;;;;;6.25;3.60;;;;;;;13.43;38.59;101611.20;1727172;82;25671;-58
2021/04/25 06:46:45;;;;;;;12.65;4.62;;;;;;;13.49;38.20;101617.41;1784797;79;26575;-59
2021/04/25 06:49:13;;;;;;;9.28;4.30;;;;;;;13.54;38.64;101614.30;1716368;83;27533;-59
2021/04/25 06:51:42;;;;;;;8.68;4.10;;;;;;;13.63;38.53;101614.84;1768044;81;25654;-59
2021/04/25 06:54:10;;;;;;;10.85;4.08;;;;;;;13.73;38.86;101617.57;1716103;82;25658;-58
2021/04/25 06:56:39;;;;;;;14.80;4.90;;;;;;;13.83;38.91;101610.86;1768005;81;26125;-58
2021/04/25 06:59:06;;;;;;;10.63;4.53;;;;;;;13.94;38.79;101614.80;1715818;82;25677;-58
2021/04/25 07:01:34;;;;;;;12.50;4.62;;;;;;;14.07;38.96;101603.75;1768183;81;27579;-58
2021/04/25 07:04:05;;;;;;;7.70;4.10;;;;;;;14.19;38.96;101605.84;1715974;83;25673;-58
2021/04/25 07:06:34;;;;;;;9.33;4.92;;;;;;;14.29;38.77;101602.66;1788722;79;25656;-58
2021/04/25 07:09:03;;;;;;;9.15;3.87;;;;;;;14.44;38.79;101604.42;1799617;78;25958;-58
2021/04/25 07:11:32;;;;;;;16.42;4.60;;;;;;;14.54;38.43;101595.81;1787256;79;26100;-59
2021/04/25 07:13:59;;;;;;;9.00;5.10;;;;;;;14.62;38.10;101602.37;1768181;81;27512;-58
2021/04/25 07:16:27;;;;;;;7.37;4.28;;;;;;;14.58;38.26;101605.02;1768190;81;25743;-58
2021/04/25 07:18:55;;;;;;;10.82;4.75;;;;;;;14.49;38.59;101597.23;1768203;80;25535;-57
2021/04/25 07:21:23;;;;;;;13.35;4.37;;;;;;;14.33;39.12;101602.71;1768030;79;25633;-58
2021/04/25 07:23:53;;;;;;;16.52;5.30;;;;;;;14.17;39.60;101594.29;1768283;80;26165;-58
2021/04/25 07:26:23;;;;;;;7.83;4.60;;;;;;;14.12;40.02;101595.22;1768134;81;28463;-59
2021/04/25 07:28:51;;;;;;;7.70;5.00;;;;;;;14.07;39.90;101592.94;1768113;81;25668;-59
2021/04/25 07:31:19;;;;;;;8.75;4.22;;;;;;;14.04;40.12;101591.33;1768102;81;25635;-58
2021/04/25 07:33:47;;;;;;;7.87;3.92;;;;;;;14.01;40.27;101587.58;1799588;79;26097;-58
2021/04/25 07:36:16;;;;;;;17.95;4.83;;;;;;;14.01;40.14;101586.70;1799780;79;26068;-59
2021/04/25 07:38:44;;;;;;;8.23;4.65;;;;;;;14.04;40.76;101585.92;1800388;79;27520;-59
2021/04/25 07:41:12;;;;;;;10.58;4.25;;;;;;;14.05;40.55;101584.09;1809538;79;25678;-59
2021/04/25 07:43:40;;;;;;;7.47;4.75;;;;;;;14.07;40.06;101588.36;1733850;82;25551;-59
2021/04/25 07:46:09;;;;;;;18.27;6.08;;;;;;;14.02;40.15;101581.17;1735082;82;26641;-59
2021/04/25 07:48:38;;;;;;;11.18;4.95;;;;;;;14.01;40.33;101584.88;1808965;79;25732;-59
2021/04/25 07:51:06;;;;;;;10.75;5.30;;;;;;;14.05;40.56;101574.62;1736371;82;28515;-59
2021/04/25 07:53:35;;;;;;;15.50;4.40;;;;;;;14.05;40.77;101573.27;1737220;82;25712;-59
2021/04/25 07:56:07;;;;;;;13.03;5.12;;;;;;;14.15;40.74;101569.22;1808753;79;25663;-59
2021/04/25 07:58:35;;;;;;;10.82;5.17;;;;;;;14.23;40.83;101557.19;1809151;78;25657;-59
2021/04/25 08:01:04;;;;;;;9.68;4.37;;;;;;;14.31;41.20;101554.63;1737623;82;25636;-59
2021/04/25 08:03:33;;;;;;;10.40;5.30;;;;;;;14.32;41.20;101544.16;1808871;79;27519;-59
2021/04/25 08:06:01;;;;;;;11.50;4.95;;;;;;;14.38;41.48;101546.32;1798184;78;25856;-59
2021/04/25 08:08:30;;;;;;;18.73;5.75;;;;;;;14.44;41.71;101534.55;1783981;80;25737;-58
2021/04/25 08:10:58;;;;;;;12.03;5.35;;;;;;;14.41;41.99;101535.70;1793798;77;25645;-59
2021/04/25 08:13:27;;;;;;;11.43;5.58;;;;;;;14.44;41.92;101532.69;1820266;77;26112;-59
2021/04/25 08:15:55;;;;;;;11.10;5.65;;;;;;;14.44;42.17;101535.39;1778799;80;27308;-59
2021/04/25 08:18:23;;;;;;;10.55;5.45;;;;;;;14.44;42.01;101529.98;1778437;80;26125;-57
2021/04/25 08:20:51;;;;;;;13.78;6.15;;;;;;;14.53;42.09;101537.76;1778677;80;25704;-57
2021/04/25 08:23:19;;;;;;;11.53;5.17;;;;;;;14.53;42.09;101530.98;1780329;79;26135;-59
2021/04/25 08:25:47;;;;;;;11.15;5.58;;;;;;;14.45;42.33;101528.98;1781299;80;26070;-59
2021/04/25 08:28:15;;;;;;;12.80;5.20;;;;;;;14.48;42.47;101523.78;1781361;79;28467;-58
2021/04/25 08:30:43;;;;;;;13.98;5.80;;;;;;;14.61;42.48;101523.00;1781263;80;25732;-58
2021/04/25 08:33:14;;;;;;;10.70;5.53;;;;;;;14.74;42.55;101517.82;1781218;79;25743;-59
2021/04/25 08:35:43;;;;;;;8.30;5.35;;;;;;;14.97;42.15;101513.77;1781280;79;26415;-58
2021/04/25 08:38:11;;;;;;;10.80;4.90;;;;;;;15.06;42.06;101503.88;1781255;80;25661;-58
2021/04/25 08:40:39;;;;;;;10.00;5.08;;;;;;;15.20;42.04;101507.13;1771187;80;27527;-60
2021/04/25 08:43:11;;;;;;;14.38;5.62;;;;;;;15.29;41.76;101508.95;1767335;79;25818;-58
2021/04/25 08:45:47;;;;;;;7.22;4.70;;;;;;;15.51;41.28;101505.50;1767257;79;25643;-58
2021/04/25 08:48:18;;;;;;;8.08;4.80;;;;;;;15.73;40.93;101492.88;1767466;80;25643;-58
2021/04/25 08:50:46;;;;;;;12.23;5.72;;;;;;;16.03;40.97;101493.56;1767302;80;25480;-58
2021/04/25 08:53:14;;;;;;;10.05;5.35;;;;;;;16.22;40.45;101488.98;1767774;80;27529;-58
2021/04/25 08:55:44;;;;;;;7.58;4.37;;;;;;;16.38;40.25;101492.33;1767695;80;25816;-59
2021/04/25 08:58:15;;;;;;;15.28;4.78;;;;;;;16.45;39.82;101482.53;1767322;80;25673;-58
2021/04/25 09:00:43;;;;;;;8.13;5.08;;;;;;;16.61;40.10;101470.11;1767502;80;26441;-58
2021/04/25 09:03:11;;;;;;;7.67;5.30;;;;;;;16.65;39.98;101471.48;1767337;80;25628;-58
2021/04/25 09:05:39;;;;;;;10.13;5.17;;;;;;;16.68;39.11;101473.89;1774594;78;28674;-59
2021/04/25 09:08:14;;;;;;;9.65;5.47;;;;;;;16.59;39.38;101461.61;1793442;80;25725;-62
2021/04/25 09:10:45;;;;;;;8.78;5.12;;;;;;;16.60;39.78;101462.45;1793189;80;25298;-62
2021/04/25 09:13:24;;;;;;;11.83;5.62;;;;;;;16.92;39.81;101465.05;1793326;79;26289;-59
2021/04/25 09:15:54;;;;;;;13.55;6.17;;;;;;;17.21;38.89;101458.44;1793389;78;25798;-60
2021/04/25 09:18:34;;;;;;;14.65;5.05;;;;;;;17.34;38.57;101456.09;1793139;79;28981;-63
2021/04/25 09:21:10;;;;;;;14.68;4.75;;;;;;;17.27;38.34;101456.41;1759617;81;25860;-58
2021/04/25 09:23:40;;;;;;;8.50;4.90;;;;;;;17.15;38.90;101453.63;1760461;81;25625;-59
2021/04/25 09:26:10;;;;;;;12.33;5.67;;;;;;;17.28;39.11;101436.36;1760223;81;26308;-58
2021/04/25 09:28:41;;;;;;;8.80;6.25;;;;;;;17.75;38.23;101448.56;1723951;83;25697;-59
2021/04/25 09:31:16;;;;;;;8.88;5.95;;;;;;;18.00;37.35;101437.73;1702901;84;46440;-59
2021/04/25 09:33:58;;;;;;;30.45;7.45;;;;;;;18.09;37.59;101434.52;1760040;81;25739;-59
2021/04/25 09:36:30;;;;;;;11.93;5.78;;;;;;;18.64;36.05;101439.73;1760983;80;25655;-59
2021/04/25 09:39:15;;;;;;;9.13;5.28;;;;;;;19.33;34.98;101426.08;1760523;81;25540;-59
2021/04/25 09:41:44;;;;;;;14.00;4.80;;;;;;;19.97;33.30;101423.13;1707245;82;26101;-58
2021/04/25 09:44:36;;;;;;;7.97;4.80;;;;;;;20.70;31.92;101407.61;1733807;81;28348;-59
2021/04/25 09:47:06;;;;;;;11.93;5.70;;;;;;;21.31;30.92;101401.07;1727368;82;25681;-58
2021/04/25 09:49:48;;;;;;;13.03;5.20;;;;;;;21.86;30.33;101399.27;1729289;82;25829;-58
2021/04/25 09:52:38;;;;;;;11.10;5.25;;;;;;;22.48;30.48;101397.69;1729385;81;25763;-59
2021/04/25 09:55:28;;;;;;;7.70;5.03;;;;;;;23.08;29.75;101397.20;1729730;81;25737;-59
2021/04/25 09:58:11;;;;;;;11.35;4.35;;;;;;;23.38;27.58;101397.44;1729391;82;27968;-58
2021/04/25 10:00:49;;;;;;;11.55;5.60;;;;;;;23.68;27.78;101388.32;1788519;78;25412;-59
2021/04/25 10:03:23;;;;;;;9.38;4.95;;;;;;;24.11;26.45;101379.39;1788490;80;25723;-59
2021/04/25 10:05:59;;;;;;;8.83;4.97;;;;;;;24.55;26.15;101366.86;1787253;78;25752;-59
2021/04/25 10:08:34;;;;;;;12.50;5.15;;;;;;;24.86;26.17;101359.83;1788511;80;26086;-59
2021/04/25 10:11:05;;;;;;;7.90;4.85;;;;;;;25.49;26.21;101351.91;1782196;80;28498;-59
2021/04/25 10:13:44;;;;;;;18.37;4.58;;;;;;;26.07;25.19;101350.30;1757000;81;25771;-59
2021/04/25 10:16:05;;;;;;;8.93;5.78;;;;;;;26.58;24.33;101346.66;1755939;81;25640;-59
2021/04/25 10:18:34;;;;;;;7.37;4.62;;;;;;;26.91;24.20;101338.53;1756938;81;25641;-58
2021/04/25 10:21:03;;;;;;;10.68;4.67;;;;;;;27.33;22.88;101342.22;1756993;80;25509;-59
2021/04/25 10:23:33;;;;;;;9.93;4.78;;;;;;;27.21;21.01;101354.30;1757129;81;27580;-60
2021/04/25 10:26:09;;;;;;;14.05;4.00;;;;;;;26.73;21.80;101330.55;1757053;81;25995;-60
2021/04/25 10:28:42;;;;;;;8.18;4.53;;;;;;;26.89;23.01;101315.84;1756989;81;25731;-58
2021/04/25 10:31:19;;;;;;;9.88;4.50;;;;;;;27.53;21.53;101320.36;1756975;81;25946;-59
2021/04/25 10:34:02;;;;;;;8.48;4.70;;;;;;;27.75;21.82;101324.78;1757164;81;26121;-59
2021/04/25 10:36:51;;;;;;;5.53;3.70;;;;;;;27.95;21.50;101312.55;1757513;80;27505;-59
2021/04/25 10:39:52;;;;;;;7.67;4.50;;;;;;;28.02;20.40;101304.97;1757335;80;26146;-60
2021/04/25 10:42:29;;;;;;;8.80;4.03;;;;;;;28.22;20.84;101308.80;1800178;79;26441;-60
2021/04/25 10:45:03;;;;;;;10.25;3.75;;;;;;;28.64;20.66;101300.00;1810819;79;26437;-59
2021/04/25 10:47:38;;;;;;;9.43;4.62;;;;;;;28.87;20.16;101303.27;1809457;78;25697;-60
2021/04/25 10:50:23;;;;;;;10.53;3.50;;;;;;;29.16;19.61;101295.80;1737462;82;27607;-60
2021/04/25 10:52:51;;;;;;;8.58;3.55;;;;;;;28.96;18.17;101307.33;1808898;79;25663;-59
2021/04/25 10:55:32;;;;;;;7.47;3.60;;;;;;;28.09;18.13;101313.19;1737494;82;26281;-59
2021/04/25 10:58:07;;;;;;;8.43;3.37;;;;;;;27.54;19.54;101311.55;1808697;79;27848;-59
2021/04/25 11:00:40;;;;;;;6.17;3.47;;;;;;;26.59;20.20;101291.75;1788909;79;25760;-59
2021/04/25 11:03:25;;;;;;;9.40;4.42;;;;;;;25.68;20.91;101290.31;1778872;80;28441;-59
2021/04/25 11:05:53;;;;;;;10.23;3.85;;;;;;;24.87;21.62;101286.36;1790738;79;26223;-59
2021/04/25 11:08:39;;;;;;;5.30;3.40;;;;;;;24.11;22.35;101285.44;1797001;79;25675;-59
2021/04/25 11:11:11;;;;;;;8.55;4.35;;;;;;;23.79;22.73;101290.70;1798873;79;26573;-59
2021/04/25 11:13:50;;;;;;;9.75;4.62;;;;;;;24.56;22.79;101281.92;1778871;80;25662;-59
2021/04/25 11:16:25;;;;;;;9.55;4.22;;;;;;;25.57;22.11;101273.13;1777973;80;27531;-59
2021/04/25 11:19:13;;;;;;;10.72;4.92;;;;;;;26.37;20.71;101273.75;1778808;80;25747;-60
2021/04/25 11:21:49;;;;;;;9.95;3.75;;;;;;;26.79;20.11;101272.23;1778513;80;25667;-59
2021/04/25 11:24:25;;;;;;;18.12;4.10;;;;;;;26.72;19.22;101268.14;1778875;80;25643;-60
2021/04/25 11:26:58;;;;;;;8.38;3.85;;;;;;;27.54;19.40;101262.64;1778845;80;25690;-60
2021/04/25 11:29:40;;;;;;;8.98;3.20;;;;;;;28.35;19.66;101266.20;1779018;80;27517;-60
2021/04/25 11:32:26;;;;;;;9.18;2.83;;;;;;;28.55;16.41;101259.43;1778902;80;25890;-60
2021/04/25 11:35:08;;;;;;;5.33;2.90;;;;;;;28.03;16.17;101261.03;1778519;80;25528;-61
2021/04/25 11:37:37;;;;;;;11.03;2.60;;;;;;;28.32;16.65;101247.88;1778648;80;26271;-60
2021/04/25 11:40:08;;;;;;;5.22;2.75;;;;;;;28.92;15.78;101249.36;1778667;79;25700;-60